createdAt,value
2022-12-07T00:01:35.425Z,98080.16
2022-12-07T00:04:07.290Z,98077.19
2022-12-07T00:06:35.857Z,98080.81
2022-12-07T00:09:02.459Z,98077.72
2022-12-07T00:11:28.943Z,98071.97
2022-12-07T00:13:57.275Z,98073.47
2022-12-07T00:16:26.228Z,98066.94
2022-12-07T00:18:52.666Z,98070.69
2022-12-07T00:21:24.421Z,98075.03
2022-12-07T00:23:52.128Z,98070.56
2022-12-07T00:26:20.864Z,98067.78
2022-12-07T00:28:55.638Z,98066.50
2022-12-07T00:31:24.055Z,98065.66
2022-12-07T00:33:51.424Z,98067.38
2022-12-07T00:36:26.408Z,98062.16
2022-12-07T00:38:54.596Z,98049.72
2022-12-07T00:41:23.836Z,98054.41
2022-12-07T00:43:51.409Z,98061.19
2022-12-07T00:46:18.477Z,98056.38
2022-12-07T00:48:45.404Z,98049.72
2022-12-07T00:51:12.983Z,98053.97
2022-12-07T00:53:41.816Z,98058.50
2022-12-07T00:56:10.892Z,98048.22
2022-12-07T00:58:37.274Z,98050.72
2022-12-07T01:01:05.407Z,98045.97
2022-12-07T01:03:32.000Z,98041.25
2022-12-07T01:05:58.949Z,98054.41
2022-12-07T01:08:27.044Z,98056.00
2022-12-07T01:11:00.905Z,98060.06
2022-12-07T01:13:29.158Z,98055.78
2022-12-07T01:15:59.222Z,98056.28
2022-12-07T01:18:25.581Z,98056.19
2022-12-07T01:21:11.777Z,98055.25
2022-12-07T01:23:38.218Z,98054.31
2022-12-07T01:26:07.912Z,98050.25
2022-12-07T01:28:34.318Z,98052.81
2022-12-07T01:31:06.084Z,98054.25
2022-12-07T01:33:35.045Z,98050.44
2022-12-07T01:36:23.930Z,98040.69
2022-12-07T01:38:53.415Z,98041.25
2022-12-07T01:41:21.802Z,98048.47
2022-12-07T01:44:09.529Z,98043.31
2022-12-07T01:46:36.037Z,98049.72
2022-12-07T01:49:05.537Z,98055.53
2022-12-07T01:51:31.972Z,98055.78
2022-12-07T01:53:59.419Z,98052.75
2022-12-07T01:56:28.043Z,98046.78
2022-12-07T01:58:57.464Z,98041.72
2022-12-07T02:01:23.979Z,98040.00
2022-12-07T02:03:50.618Z,98046.03
2022-12-07T02:06:20.823Z,98048.00
2022-12-07T02:08:47.969Z,98043.19
2022-12-07T02:11:14.634Z,98039.22
2022-12-07T02:13:43.147Z,98033.19
2022-12-07T02:16:30.472Z,98042.25
2022-12-07T02:19:06.381Z,98045.97
2022-12-07T02:22:08.195Z,98047.25
2022-12-07T02:24:54.919Z,98022.69
2022-12-07T02:27:50.695Z,98033.94
2022-12-07T02:30:20.361Z,98026.69
2022-12-07T02:32:54.347Z,98027.41
2022-12-07T02:35:42.067Z,98026.59
2022-12-07T02:38:19.411Z,98019.00
2022-12-07T02:41:18.233Z,98025.28
2022-12-07T02:43:49.115Z,98016.28
2022-12-07T02:46:21.026Z,98016.28
2022-12-07T02:48:48.741Z,98016.81
2022-12-07T02:51:15.071Z,98013.31
2022-12-07T02:53:43.318Z,98009.41
2022-12-07T02:56:40.358Z,98004.13
2022-12-07T02:59:17.770Z,98006.63
2022-12-07T03:02:06.212Z,98004.50
2022-12-07T03:04:50.781Z,98003.75
2022-12-07T03:07:43.763Z,98002.53
2022-12-07T03:10:35.016Z,97995.28
2022-12-07T03:13:30.355Z,97993.50
2022-12-07T03:16:03.679Z,97995.47
2022-12-07T03:18:33.299Z,97990.16
2022-12-07T03:21:18.641Z,97990.47
2022-12-07T03:23:50.015Z,97982.28
2022-12-07T03:26:18.437Z,97981.94
2022-12-07T03:28:52.886Z,97981.16
2022-12-07T03:31:26.041Z,97974.91
2022-12-07T03:34:04.480Z,97972.13
2022-12-07T03:36:43.888Z,97976.97
2022-12-07T03:39:32.311Z,97979.75
2022-12-07T03:42:00.981Z,97976.28
2022-12-07T03:44:27.704Z,97975.00
2022-12-07T03:47:12.223Z,97970.53
2022-12-07T03:49:46.408Z,97970.28
2022-12-07T03:52:43.529Z,97974.00
2022-12-07T03:55:13.393Z,97974.72
2022-12-07T03:57:42.646Z,97969.59
2022-12-07T04:00:11.207Z,97967.38
2022-12-07T04:02:38.358Z,97974.81
2022-12-07T04:05:05.667Z,97969.34
2022-12-07T04:07:32.019Z,97960.69
2022-12-07T04:09:58.461Z,97970.31
2022-12-07T04:12:25.169Z,97967.88
2022-12-07T04:14:51.603Z,97966.41
2022-12-07T04:17:18.001Z,97967.22
2022-12-07T04:19:44.417Z,97963.16
2022-12-07T04:22:10.991Z,97965.13
2022-12-07T04:24:37.345Z,97956.09
2022-12-07T04:27:04.065Z,97965.47
2022-12-07T04:29:30.458Z,97941.19
2022-12-07T04:31:56.918Z,97945.63
2022-12-07T04:34:23.405Z,97945.13
2022-12-07T04:36:49.932Z,97941.44
2022-12-07T04:39:31.150Z,97949.50
2022-12-07T04:41:58.671Z,97942.63
2022-12-07T04:44:25.685Z,97930.56
2022-12-07T04:46:53.317Z,97927.69
2022-12-07T04:49:20.402Z,97936.66
2022-12-07T04:51:48.362Z,97929.16
2022-12-07T04:54:16.126Z,97926.00
2022-12-07T04:56:43.185Z,97929.78
2022-12-07T04:59:11.736Z,97923.75
2022-12-07T05:01:38.350Z,97920.06
2022-12-07T05:04:05.099Z,97918.63
2022-12-07T05:06:31.429Z,97919.78
2022-12-07T05:08:57.779Z,97918.09
2022-12-07T05:11:39.685Z,97915.06
2022-12-07T05:14:09.684Z,97909.31
2022-12-07T05:16:36.211Z,97902.34
2022-12-07T05:19:02.765Z,97904.09
2022-12-07T05:21:29.170Z,97906.38
2022-12-07T05:23:55.734Z,97894.19
2022-12-07T05:26:22.114Z,97907.44
2022-12-07T05:28:56.276Z,97901.69
2022-12-07T05:31:24.241Z,97901.47
2022-12-07T05:33:50.751Z,97893.44
2022-12-07T05:36:17.298Z,97906.38
2022-12-07T05:38:43.973Z,97901.59
2022-12-07T05:41:34.001Z,97897.88
2022-12-07T05:44:00.705Z,97894.09
2022-12-07T05:46:27.880Z,97892.44
2022-12-07T05:48:54.329Z,97884.31
2022-12-07T05:51:21.054Z,97891.63
2022-12-07T05:53:47.418Z,97880.88
2022-12-07T05:56:13.913Z,97875.88
2022-12-07T05:58:59.134Z,97866.06
2022-12-07T06:01:25.516Z,97872.34
2022-12-07T06:03:51.895Z,97864.09
2022-12-07T06:06:18.395Z,97864.91
2022-12-07T06:08:44.792Z,97859.84
2022-12-07T06:11:29.845Z,97870.03
2022-12-07T06:13:56.368Z,97871.06
2022-12-07T06:16:22.811Z,97868.47
2022-12-07T06:18:49.188Z,97874.97
2022-12-07T06:21:15.552Z,97857.34
2022-12-07T06:23:42.239Z,97853.09
2022-12-07T06:26:08.639Z,97849.84
2022-12-07T06:28:35.051Z,97848.44
2022-12-07T06:31:02.968Z,97841.25
2022-12-07T06:33:29.914Z,97838.81
2022-12-07T06:35:56.524Z,97842.69
2022-12-07T06:38:23.027Z,97843.38
2022-12-07T06:40:49.555Z,97831.84
2022-12-07T06:43:15.951Z,97844.00
2022-12-07T06:45:42.786Z,97850.03
2022-12-07T06:48:09.192Z,97845.88
2022-12-07T06:50:35.804Z,97846.72
2022-12-07T06:53:02.188Z,97849.22
2022-12-07T06:55:28.523Z,97849.31
2022-12-07T06:57:54.886Z,97844.38
2022-12-07T07:00:22.341Z,97855.06
2022-12-07T07:02:49.088Z,97847.72
2022-12-07T07:05:16.650Z,97852.38
2022-12-07T07:08:05.386Z,97849.38
2022-12-07T07:10:29.739Z,97847.91
2022-12-07T07:12:57.738Z,97843.47
2022-12-07T07:15:24.474Z,97845.03
2022-12-07T07:17:50.915Z,97852.00
2022-12-07T07:20:17.455Z,97854.88
2022-12-07T07:22:43.824Z,97849.94
2022-12-07T07:25:10.187Z,97853.66
2022-12-07T07:27:36.733Z,97850.69
2022-12-07T07:30:04.315Z,97858.75
2022-12-07T07:32:31.024Z,97855.53
2022-12-07T07:34:57.438Z,97858.28
2022-12-07T07:37:24.247Z,97856.59
2022-12-07T07:39:50.648Z,97855.41
2022-12-07T07:42:17.049Z,97859.84
2022-12-07T07:44:43.568Z,97861.63
2022-12-07T07:47:10.126Z,97860.53
2022-12-07T07:49:36.582Z,97858.56
2022-12-07T07:52:03.231Z,97858.56
2022-12-07T07:54:29.783Z,97864.22
2022-12-07T07:56:56.128Z,97861.53
2022-12-07T07:59:22.552Z,97871.94
2022-12-07T08:01:48.977Z,97873.16
2022-12-07T08:04:15.439Z,97870.19
2022-12-07T08:06:43.045Z,97870.44
2022-12-07T08:09:10.208Z,97867.94
2022-12-07T08:11:37.533Z,97870.19
2022-12-07T08:14:04.054Z,97876.94
2022-12-07T08:16:30.474Z,97877.78
2022-12-07T08:18:57.266Z,97871.41
2022-12-07T08:21:23.792Z,97871.75
2022-12-07T08:23:50.239Z,97867.41
2022-12-07T08:26:17.800Z,97856.66
2022-12-07T08:28:44.237Z,97862.84
2022-12-07T08:31:17.723Z,97870.63
2022-12-07T08:33:46.648Z,97862.03
2022-12-07T08:36:13.477Z,97865.38
2022-12-07T08:38:44.969Z,97859.59
2022-12-07T08:41:18.062Z,97865.16
2022-12-07T08:43:44.497Z,97865.91
2022-12-07T08:46:35.138Z,97867.28
2022-12-07T08:49:10.834Z,97868.13
2022-12-07T08:51:37.443Z,97869.72
2022-12-07T08:54:08.560Z,97867.47
2022-12-07T08:56:35.805Z,97863.75
2022-12-07T08:59:02.263Z,97867.09
2022-12-07T09:01:29.430Z,97870.34
2022-12-07T09:03:55.889Z,97869.84
2022-12-07T09:06:22.686Z,97872.81
2022-12-07T09:08:53.342Z,97874.59
2022-12-07T09:11:22.827Z,97872.81
2022-12-07T09:13:53.598Z,97868.09
2022-12-07T09:16:20.046Z,97871.41
2022-12-07T09:18:46.568Z,97875.09
2022-12-07T09:21:12.926Z,97874.09
2022-12-07T09:23:39.270Z,97879.00
2022-12-07T09:26:10.458Z,97875.56
2022-12-07T09:28:37.271Z,97881.19
2022-12-07T09:34:01.653Z,97872.59
2022-12-07T09:36:29.193Z,97868.91
2022-12-07T09:38:55.930Z,97870.84
2022-12-07T09:41:24.323Z,97876.91
2022-12-07T09:43:51.310Z,97871.88
2022-12-07T09:46:20.331Z,97870.63
2022-12-07T09:48:48.430Z,97862.59
2022-12-07T09:51:23.757Z,97868.69
2022-12-07T09:53:52.861Z,97871.09
2022-12-07T09:56:20.465Z,97862.81
2022-12-07T09:58:47.240Z,97852.94
2022-12-07T10:01:17.499Z,97866.97
2022-12-07T10:03:54.068Z,97851.97
2022-12-07T10:06:20.807Z,97848.78
2022-12-07T10:08:47.835Z,97846.44
2022-12-07T10:11:15.808Z,97849.72
2022-12-07T10:13:46.265Z,97841.34
2022-12-07T10:16:24.618Z,97841.03
2022-12-07T10:18:51.288Z,97842.38
2022-12-07T10:21:21.822Z,97843.69
2022-12-07T10:24:19.033Z,97840.91
2022-12-07T10:26:48.326Z,97842.97
2022-12-07T10:29:32.641Z,97843.88
2022-12-07T10:32:04.692Z,97840.78
2022-12-07T10:34:39.698Z,97846.28
2022-12-07T10:37:18.316Z,97841.84
2022-12-07T10:39:51.313Z,97843.78
2022-12-07T10:42:26.408Z,97830.78
2022-12-07T10:45:25.747Z,97824.72
2022-12-07T10:48:12.713Z,97834.16
2022-12-07T10:50:57.696Z,97843.78
2022-12-07T10:53:33.221Z,97841.00
2022-12-07T10:56:14.774Z,97826.19
2022-12-07T10:58:59.312Z,97832.09
2022-12-07T11:01:47.289Z,97830.19
2022-12-07T11:04:19.505Z,97822.03
2022-12-07T11:06:55.261Z,97821.00
2022-12-07T11:10:07.492Z,97816.25
2022-12-07T11:12:34.425Z,97818.47
2022-12-07T11:15:14.856Z,97811.97
2022-12-07T11:18:04.134Z,97813.44
2022-12-07T11:20:53.490Z,97812.53
2022-12-07T11:23:22.507Z,97806.03
2022-12-07T11:25:55.763Z,97806.63
2022-12-07T11:28:33.978Z,97815.63
2022-12-07T11:31:13.609Z,97815.75
2022-12-07T11:33:59.680Z,97811.78
2022-12-07T11:36:41.357Z,97810.75
2022-12-07T11:39:28.085Z,97810.59
2022-12-07T11:42:10.824Z,97805.56
2022-12-07T11:44:43.131Z,97806.59
2022-12-07T11:47:17.305Z,97801.28
2022-12-07T11:49:49.092Z,97801.59
2022-12-07T11:52:37.323Z,97802.16
2022-12-07T11:55:08.039Z,97802.50
2022-12-07T11:57:42.494Z,97795.25
2022-12-07T12:00:18.001Z,97799.38
2022-12-07T12:02:48.809Z,97798.94
2022-12-07T12:05:26.114Z,97793.31
2022-12-07T12:11:28.061Z,97794.63
2022-12-07T12:14:35.304Z,97788.56
2022-12-07T12:17:24.243Z,97796.28
2022-12-07T12:20:21.829Z,97788.72
2022-12-07T12:23:16.154Z,97789.31
2022-12-07T12:25:55.269Z,97796.72
2022-12-07T12:28:30.902Z,97789.63
2022-12-07T12:31:17.886Z,97792.88
2022-12-07T12:33:47.922Z,97799.25
2022-12-07T12:36:17.340Z,97792.28
2022-12-07T12:38:59.706Z,97789.94
2022-12-07T12:41:39.186Z,97790.97
2022-12-07T12:44:19.059Z,97795.53
2022-12-07T12:47:05.904Z,97784.03
2022-12-07T12:49:39.394Z,97789.19
2022-12-07T12:52:14.870Z,97789.19
2022-12-07T12:55:22.292Z,97791.34
2022-12-07T12:58:29.015Z,97786.72
2022-12-07T13:01:36.386Z,97788.34
2022-12-07T13:04:15.056Z,97789.09
2022-12-07T13:06:42.886Z,97779.13
2022-12-07T13:09:24.030Z,97779.28
2022-12-07T13:11:56.582Z,97785.16
2022-12-07T13:14:53.813Z,97784.88
2022-12-07T13:17:32.351Z,97778.97
2022-12-07T13:20:02.230Z,97786.31
2022-12-07T13:22:31.701Z,97783.63
2022-12-07T13:25:20.575Z,97779.34
2022-12-07T13:28:08.689Z,97772.13
2022-12-07T13:31:00.527Z,97774.88
2022-12-07T13:33:29.132Z,97782.28
2022-12-07T13:35:57.556Z,97776.50
2022-12-07T13:38:31.395Z,97780.34
2022-12-07T13:41:18.516Z,97778.13
2022-12-07T13:43:51.061Z,97775.34
2022-12-07T13:46:20.621Z,97767.50
2022-12-07T13:48:49.452Z,97780.19
2022-12-07T13:51:25.408Z,97785.03
2022-12-07T13:53:54.709Z,97783.75
2022-12-07T13:56:30.297Z,97787.84
2022-12-07T13:58:56.786Z,97791.38
2022-12-07T14:01:23.428Z,97799.25
2022-12-07T14:03:49.867Z,97804.44
2022-12-07T14:06:28.873Z,97784.38
2022-12-07T14:09:18.824Z,97786.19
2022-12-07T14:11:47.089Z,97792.69
2022-12-07T14:14:26.065Z,97791.22
2022-12-07T14:17:25.900Z,97793.44
2022-12-07T14:19:58.339Z,97787.41
2022-12-07T14:22:40.283Z,97792.28
2022-12-07T14:25:28.713Z,97787.56
2022-12-07T14:28:02.373Z,97791.56
2022-12-07T14:30:32.254Z,97787.00
2022-12-07T14:33:04.379Z,97790.84
2022-12-07T14:35:32.455Z,97787.28
2022-12-07T14:37:59.149Z,97784.97
2022-12-07T14:40:28.377Z,97790.88
2022-12-07T14:43:07.650Z,97782.59
2022-12-07T14:45:34.019Z,97785.28
2022-12-07T14:53:49.884Z,97771.69
2022-12-07T14:56:19.660Z,97783.19
2022-12-07T14:58:48.973Z,97777.59
2022-12-07T15:01:15.455Z,97779.66
2022-12-07T15:03:41.838Z,97771.44
2022-12-07T15:06:08.268Z,97779.25
2022-12-07T15:08:34.972Z,97768.56
2022-12-07T15:11:01.331Z,97771.81
2022-12-07T15:13:46.529Z,97768.28
2022-12-07T15:16:15.891Z,97766.66
2022-12-07T15:18:45.392Z,97764.88
2022-12-07T15:21:24.972Z,97762.72
2022-12-07T15:23:51.475Z,97787.94
2022-12-07T15:26:17.997Z,97815.56
2022-12-07T15:28:44.357Z,97805.31
2022-12-07T15:31:46.443Z,97807.13
2022-12-07T15:34:01.906Z,97801.69
2022-12-07T15:36:30.062Z,97803.22
2022-12-07T15:39:13.583Z,97803.78
2022-12-07T15:41:40.886Z,97798.88
2022-12-07T15:44:30.749Z,97808.94
2022-12-07T15:46:57.510Z,97800.47
2022-12-07T15:49:23.966Z,97802.81
2022-12-07T15:51:50.346Z,97797.22
2022-12-07T15:54:22.537Z,97794.72
2022-12-07T15:56:49.329Z,97800.47
2022-12-07T15:59:16.235Z,97790.38
2022-12-07T16:01:42.841Z,97794.91
2022-12-07T16:04:09.545Z,97799.00
2022-12-07T16:06:36.368Z,97796.50
2022-12-07T16:09:03.449Z,97798.44
2022-12-07T16:11:30.160Z,97800.41
2022-12-07T16:13:56.792Z,97799.66
2022-12-07T16:16:23.623Z,97801.22
2022-12-07T16:18:51.339Z,97799.72
2022-12-07T16:21:24.623Z,97800.78
2022-12-07T16:23:51.725Z,97797.97
2022-12-07T16:26:20.376Z,97797.53
2022-12-07T16:28:52.775Z,97795.03
2022-12-07T16:31:21.761Z,97797.53
2022-12-07T16:33:50.052Z,97791.50
2022-12-07T16:36:28.923Z,97800.78
2022-12-07T16:39:05.287Z,97794.72
2022-12-07T16:41:32.109Z,97795.78
2022-12-07T16:44:04.264Z,97808.75
2022-12-07T16:46:33.437Z,97803.16
2022-12-07T16:49:00.007Z,97791.59
2022-12-07T16:51:26.581Z,97798.78
2022-12-07T16:53:54.103Z,97794.09
2022-12-07T16:56:20.741Z,97795.19
2022-12-07T16:58:49.275Z,97796.00
2022-12-07T17:01:20.375Z,97797.03
2022-12-07T17:03:47.501Z,97800.88
2022-12-07T17:06:19.412Z,97800.28
2022-12-07T17:08:46.002Z,97792.03
2022-12-07T17:11:14.153Z,97789.34
2022-12-07T17:13:59.433Z,97800.88
2022-12-07T17:16:26.049Z,97794.81
2022-12-07T17:18:53.007Z,97789.06
2022-12-07T17:21:19.704Z,97792.22
2022-12-07T17:23:46.677Z,97797.78
2022-12-07T17:26:19.632Z,97801.59
2022-12-07T17:28:46.838Z,97801.50
2022-12-07T17:31:15.234Z,97797.50
2022-12-07T17:33:41.762Z,97797.69
2022-12-07T17:36:17.099Z,97797.78
2022-12-07T17:38:43.971Z,97795.09
2022-12-07T17:41:38.890Z,97808.19
2022-12-07T17:44:08.115Z,97798.91
2022-12-07T17:46:35.262Z,97792.59
2022-12-07T17:49:02.372Z,97792.88
2022-12-07T17:51:47.519Z,97804.66
2022-12-07T17:54:14.443Z,97803.66
2022-12-07T17:56:41.076Z,97799.38
2022-12-07T17:59:08.116Z,97792.28
2022-12-07T18:01:35.321Z,97798.97
2022-12-07T18:04:02.772Z,97796.66
2022-12-07T18:06:29.486Z,97792.09
2022-12-07T18:08:56.512Z,97791.66
2022-12-07T18:11:23.095Z,97793.03
2022-12-07T18:13:49.881Z,97795.69
2022-12-07T18:16:18.613Z,97787.44
2022-12-07T18:18:50.742Z,97795.06
2022-12-07T18:21:21.807Z,97793.16
2022-12-07T18:23:50.355Z,97799.94
2022-12-07T18:26:18.114Z,97800.09
2022-12-07T18:28:45.613Z,97804.59
2022-12-07T18:31:15.988Z,97801.63
2022-12-07T18:33:44.384Z,97802.09
2022-12-07T18:36:11.696Z,97801.06
2022-12-07T18:38:38.548Z,97803.78
2022-12-07T18:41:08.757Z,97795.38
2022-12-07T18:43:35.158Z,97796.75
2022-12-07T18:46:01.638Z,97801.31
2022-12-07T18:48:28.042Z,97797.31
2022-12-07T18:51:03.054Z,97803.78
2022-12-07T18:53:29.690Z,97801.34
2022-12-07T18:56:07.199Z,97798.56
2022-12-07T18:58:34.710Z,97799.72
2022-12-07T19:01:01.109Z,97798.97
2022-12-07T19:03:32.972Z,97801.75
2022-12-07T19:06:06.157Z,97808.72
2022-12-07T19:08:34.163Z,97807.50
2022-12-07T19:11:23.703Z,97810.66
2022-12-07T19:13:50.868Z,97805.63
2022-12-07T19:16:17.337Z,97807.22
2022-12-07T19:18:49.322Z,97805.13
2022-12-07T19:21:17.602Z,97806.56
2022-12-07T19:23:44.037Z,97804.19
2022-12-07T19:26:10.448Z,97810.09
2022-12-07T19:28:36.969Z,97806.41
2022-12-07T19:31:13.806Z,97811.28
2022-12-07T19:33:40.941Z,97809.22
2022-12-07T19:36:07.789Z,97803.75
2022-12-07T19:38:34.190Z,97801.53
2022-12-07T19:41:33.861Z,97804.63
2022-12-07T19:44:09.642Z,97798.44
2022-12-07T19:46:36.386Z,97802.09
2022-12-07T19:49:02.900Z,97805.53
2022-12-07T19:51:30.936Z,97801.53
2022-12-07T19:53:59.192Z,97804.78
2022-12-07T19:56:29.078Z,97796.97
2022-12-07T19:58:55.940Z,97799.94
2022-12-07T20:01:22.632Z,97799.81
2022-12-07T20:03:49.205Z,97792.94
2022-12-07T20:06:18.813Z,97795.25
2022-12-07T20:08:46.543Z,97787.63
2022-12-07T20:11:32.806Z,97790.16
2022-12-07T20:13:59.338Z,97784.47
2022-12-07T20:16:26.120Z,97781.47
2022-12-07T20:18:57.603Z,97786.44
2022-12-07T20:21:24.660Z,97790.06
2022-12-07T20:23:51.282Z,97791.84
2022-12-07T20:26:18.070Z,97801.19
2022-12-07T20:28:46.437Z,97795.31
2022-12-07T20:31:14.524Z,97802.28
2022-12-07T20:33:42.634Z,97793.09
2022-12-07T20:36:09.876Z,97776.88
2022-12-07T20:38:36.363Z,97792.19
2022-12-07T20:41:05.103Z,97793.03
2022-12-07T20:43:31.542Z,97776.13
2022-12-07T20:45:58.398Z,97787.00
2022-12-07T20:48:24.921Z,97776.34
2022-12-07T20:50:51.415Z,97783.13
2022-12-07T20:53:17.896Z,97783.13
2022-12-07T20:55:44.584Z,97777.66
2022-12-07T20:58:11.573Z,97771.59
2022-12-07T21:00:38.167Z,97783.47
2022-12-07T21:03:05.117Z,97784.00
2022-12-07T21:05:31.597Z,97780.75
2022-12-07T21:07:58.067Z,97780.47
2022-12-07T21:10:24.463Z,97784.59
2022-12-07T21:12:55.486Z,97770.38
2022-12-07T21:15:22.630Z,97779.00
2022-12-07T21:17:49.056Z,97776.13
2022-12-07T21:20:15.440Z,97778.72
2022-12-07T21:22:41.901Z,97768.69
2022-12-07T21:25:08.997Z,97778.50
2022-12-07T21:27:35.420Z,97770.69
2022-12-07T21:30:01.859Z,97769.22
2022-12-07T21:32:28.288Z,97767.66
2022-12-07T21:34:54.769Z,97766.53
2022-12-07T21:37:21.321Z,97768.88
2022-12-07T21:39:47.874Z,97772.41
2022-12-07T21:42:14.452Z,97777.22
2022-12-07T21:44:41.555Z,97773.09
2022-12-07T21:47:07.971Z,97779.00
2022-12-07T21:49:36.212Z,97772.88
2022-12-07T21:52:03.147Z,97772.41
2022-12-07T21:54:29.615Z,97782.84
2022-12-07T21:56:56.034Z,97778.09
2022-12-07T21:59:22.842Z,97776.75
2022-12-07T22:01:50.417Z,97779.72
2022-12-07T22:04:24.184Z,97768.94
2022-12-07T22:06:51.659Z,97765.69
2022-12-07T22:09:18.923Z,97766.72
2022-12-07T22:11:46.239Z,97768.78
2022-12-07T22:14:31.263Z,97758.47
2022-12-07T22:16:58.053Z,97757.31
2022-12-07T22:19:24.564Z,97761.72
2022-12-07T22:21:50.916Z,97758.63
2022-12-07T22:24:17.333Z,97767.91
2022-12-07T22:26:43.986Z,97766.00
2022-12-07T22:29:11.077Z,97757.59
2022-12-07T22:31:38.387Z,97767.63
2022-12-07T22:34:04.895Z,97768.22
2022-12-07T22:36:31.356Z,97763.97
2022-12-07T22:38:57.822Z,97760.16
2022-12-07T22:41:27.134Z,97763.69
2022-12-07T22:43:54.103Z,97756.16
2022-12-07T22:46:22.926Z,97756.28
2022-12-07T22:48:49.732Z,97751.41
2022-12-07T22:51:21.958Z,97754.09
2022-12-07T22:53:48.489Z,97752.06
2022-12-07T22:56:14.880Z,97754.09
2022-12-07T22:58:41.371Z,97748.06
2022-12-07T23:01:09.097Z,97750.97
2022-12-07T23:03:35.648Z,97744.94
2022-12-07T23:06:10.751Z,97739.94
2022-12-07T23:08:37.168Z,97745.22
2022-12-07T23:11:04.279Z,97743.16
2022-12-07T23:13:35.589Z,97750.53
2022-12-07T23:16:22.269Z,97748.91
2022-12-07T23:18:48.770Z,97751.72
2022-12-07T23:21:15.211Z,97741.09
2022-12-07T23:23:41.737Z,97739.94
2022-12-07T23:26:10.617Z,97743.81
2022-12-07T23:28:38.323Z,97746.72
2022-12-07T23:31:12.369Z,97746.25
2022-12-07T23:33:39.218Z,97740.78
2022-12-07T23:36:18.008Z,97742.72
2022-12-07T23:38:46.503Z,97744.31
2022-12-07T23:41:14.839Z,97736.97
2022-12-07T23:43:42.058Z,97740.50
2022-12-07T23:46:11.241Z,97737.44
2022-12-07T23:48:38.509Z,97734.91
2022-12-07T23:51:05.956Z,97732.41
2022-12-07T23:53:36.297Z,97733.78
2022-12-07T23:56:03.776Z,97731.53
2022-12-07T23:58:30.228Z,97728.06
